createdAt,value
2023-03-16T00:00:42.827Z,4.18
2023-03-16T00:03:10.041Z,3.00
2023-03-16T00:05:36.612Z,3.60
2023-03-16T00:08:02.935Z,3.75
2023-03-16T00:10:29.511Z,3.40
2023-03-16T00:12:56.698Z,3.80
2023-03-16T00:15:23.069Z,3.47
2023-03-16T00:17:49.481Z,3.97
2023-03-16T00:20:16.626Z,4.10
2023-03-16T00:22:43.033Z,3.58
2023-03-16T00:25:09.834Z,3.85
2023-03-16T00:27:36.282Z,4.32
2023-03-16T00:30:03.448Z,4.03
2023-03-16T00:32:32.484Z,4.43
2023-03-16T00:34:59.464Z,4.30
2023-03-16T00:37:26.795Z,4.43
2023-03-16T00:39:56.043Z,4.03
2023-03-16T00:42:27.257Z,4.68
2023-03-16T00:44:57.179Z,4.78
2023-03-16T00:47:24.604Z,4.25
2023-03-16T00:49:50.923Z,4.50
2023-03-16T00:52:17.397Z,4.57
2023-03-16T00:54:44.704Z,4.75
2023-03-16T00:57:12.276Z,4.32
2023-03-16T00:59:38.615Z,4.13
2023-03-16T01:02:06.407Z,4.30
2023-03-16T01:04:34.161Z,4.60
2023-03-16T01:07:00.535Z,4.63
2023-03-16T01:09:26.884Z,4.85
2023-03-16T01:11:53.775Z,4.28
2023-03-16T01:14:20.993Z,4.40
2023-03-16T01:16:47.686Z,4.78
2023-03-16T01:19:14.538Z,4.60
2023-03-16T01:21:42.428Z,4.57
2023-03-16T01:24:10.103Z,4.65
2023-03-16T01:26:36.508Z,4.70
2023-03-16T01:29:02.978Z,5.13
2023-03-16T01:31:29.580Z,5.13
2023-03-16T01:33:56.419Z,5.05
2023-03-16T01:36:26.708Z,4.80
2023-03-16T01:38:57.162Z,4.93
2023-03-16T01:41:27.187Z,5.18
2023-03-16T01:43:58.201Z,5.32
2023-03-16T01:46:27.414Z,4.88
2023-03-16T01:48:54.879Z,5.50
2023-03-16T01:51:23.623Z,4.85
2023-03-16T01:53:53.056Z,4.53
2023-03-16T01:56:23.575Z,5.20
2023-03-16T01:58:52.061Z,4.60
2023-03-16T02:01:18.522Z,5.40
2023-03-16T02:03:45.219Z,5.00
2023-03-16T02:06:22.973Z,5.15
2023-03-16T02:08:55.368Z,5.03
2023-03-16T02:11:23.181Z,4.90
2023-03-16T02:13:58.802Z,4.50
2023-03-16T02:16:26.176Z,5.18
2023-03-16T02:18:53.296Z,5.28
2023-03-16T02:21:25.378Z,5.60
2023-03-16T02:23:51.747Z,5.13
2023-03-16T02:26:37.429Z,5.22
2023-03-16T02:29:23.224Z,5.40
2023-03-16T02:31:52.925Z,6.13
2023-03-16T02:34:19.388Z,5.35
2023-03-16T02:36:46.947Z,4.82
2023-03-16T02:39:14.129Z,5.88
2023-03-16T02:41:46.281Z,5.18
2023-03-16T02:44:15.967Z,5.25
2023-03-16T02:46:43.502Z,6.25
2023-03-16T02:49:09.996Z,5.25
2023-03-16T02:51:37.349Z,5.45
2023-03-16T02:54:03.777Z,5.85
2023-03-16T02:56:33.550Z,5.22
2023-03-16T02:59:00.000Z,4.90
2023-03-16T03:01:26.670Z,5.78
2023-03-16T03:03:54.286Z,4.53
2023-03-16T03:06:20.605Z,5.60
2023-03-16T03:08:47.005Z,5.40
2023-03-16T03:11:13.550Z,5.03
2023-03-16T03:13:40.081Z,5.70
2023-03-16T03:16:12.625Z,5.97
2023-03-16T03:18:39.125Z,4.45
2023-03-16T03:21:05.796Z,5.57
2023-03-16T03:23:35.442Z,5.30
2023-03-16T03:26:02.959Z,5.93
2023-03-16T03:28:30.695Z,5.30
2023-03-16T03:30:57.268Z,5.78
2023-03-16T03:33:23.680Z,5.32
2023-03-16T03:35:58.133Z,5.18
2023-03-16T03:38:26.485Z,5.80
2023-03-16T03:40:54.564Z,5.20
2023-03-16T03:43:21.144Z,6.00
2023-03-16T03:45:49.222Z,6.10
2023-03-16T03:48:15.884Z,5.47
2023-03-16T03:50:42.284Z,5.65
2023-03-16T03:53:31.256Z,5.88
2023-03-16T03:56:10.027Z,5.93
2023-03-16T03:58:37.405Z,6.15
2023-03-16T04:01:03.851Z,5.97
2023-03-16T04:03:32.132Z,5.47
2023-03-16T04:05:58.795Z,5.63
2023-03-16T04:08:25.180Z,6.65
2023-03-16T04:10:51.796Z,6.18
2023-03-16T04:13:20.408Z,5.78
2023-03-16T04:15:48.757Z,6.20
2023-03-16T04:18:22.092Z,6.40
2023-03-16T04:20:48.701Z,6.13
2023-03-16T04:23:18.318Z,6.38
2023-03-16T04:25:47.906Z,6.85
2023-03-16T04:28:17.738Z,6.60
2023-03-16T04:30:46.106Z,6.68
2023-03-16T04:33:19.200Z,5.93
2023-03-16T04:35:46.169Z,6.30
2023-03-16T04:38:14.286Z,6.45
2023-03-16T04:40:50.640Z,6.25
2023-03-16T04:43:20.588Z,5.90
2023-03-16T04:45:49.141Z,6.35
2023-03-16T04:48:15.655Z,6.63
2023-03-16T04:50:44.050Z,6.18
2023-03-16T04:53:10.452Z,6.68
2023-03-16T04:55:36.802Z,5.53
2023-03-16T04:58:03.936Z,5.90
2023-03-16T05:00:34.122Z,6.07
2023-03-16T05:03:11.628Z,6.03
2023-03-16T05:05:38.980Z,6.43
2023-03-16T05:08:06.148Z,6.03
2023-03-16T05:10:34.579Z,5.45
2023-03-16T05:13:01.826Z,6.00
2023-03-16T05:15:28.393Z,5.30
2023-03-16T05:18:10.732Z,5.57
2023-03-16T05:20:37.091Z,5.50
2023-03-16T05:23:04.740Z,5.05
2023-03-16T05:25:34.710Z,6.35
2023-03-16T05:28:05.453Z,5.25
2023-03-16T05:30:51.566Z,4.95
2023-03-16T05:33:22.718Z,5.53
2023-03-16T05:35:53.929Z,5.63
2023-03-16T05:38:20.544Z,4.90
2023-03-16T05:40:53.002Z,4.75
2023-03-16T05:43:32.179Z,5.78
2023-03-16T05:45:59.119Z,5.75
2023-03-16T05:48:26.550Z,5.35
2023-03-16T05:50:56.155Z,5.57
2023-03-16T05:53:28.994Z,5.88
2023-03-16T05:56:01.479Z,5.18
2023-03-16T05:58:33.627Z,5.15
2023-03-16T06:01:02.991Z,5.30
2023-03-16T06:03:31.348Z,5.05
2023-03-16T06:05:58.916Z,5.28
2023-03-16T06:08:32.232Z,4.90
2023-03-16T06:11:08.884Z,4.97
2023-03-16T06:13:35.991Z,5.10
2023-03-16T06:16:03.113Z,5.35
2023-03-16T06:18:29.984Z,4.88
2023-03-16T06:20:56.550Z,5.20
2023-03-16T06:23:23.784Z,5.07
2023-03-16T06:25:50.990Z,4.88
2023-03-16T06:28:20.736Z,5.10
2023-03-16T06:30:47.105Z,5.05
2023-03-16T06:33:13.449Z,4.20
2023-03-16T06:35:40.068Z,4.30
2023-03-16T06:38:13.860Z,4.60
2023-03-16T06:40:59.017Z,4.72
2023-03-16T06:43:25.894Z,4.85
2023-03-16T06:45:53.209Z,4.80
2023-03-16T06:48:20.366Z,4.43
2023-03-16T06:50:47.685Z,3.85
2023-03-16T06:53:19.451Z,4.93
2023-03-16T06:55:46.380Z,4.68
2023-03-16T06:58:13.973Z,4.93
2023-03-16T07:00:40.537Z,4.57
2023-03-16T07:03:07.102Z,4.93
2023-03-16T07:05:35.308Z,4.25
2023-03-16T07:08:04.201Z,3.80
2023-03-16T07:10:31.562Z,4.35
2023-03-16T07:12:58.747Z,3.80
2023-03-16T07:15:26.623Z,3.95
2023-03-16T07:17:58.328Z,4.03
2023-03-16T07:20:27.092Z,4.22
2023-03-16T07:22:53.636Z,4.35
2023-03-16T07:25:20.552Z,4.50
2023-03-16T07:27:53.653Z,4.22
2023-03-16T07:30:26.758Z,4.30
2023-03-16T07:32:53.946Z,4.07
2023-03-16T07:35:22.929Z,4.15
2023-03-16T07:37:49.793Z,4.00
2023-03-16T07:40:16.676Z,3.33
2023-03-16T07:42:44.148Z,4.10
2023-03-16T07:45:17.708Z,4.00
2023-03-16T07:47:45.388Z,5.35
2023-03-16T07:50:22.639Z,4.38
2023-03-16T07:52:49.643Z,4.75
2023-03-16T07:55:16.647Z,4.65
2023-03-16T07:57:47.856Z,4.55
2023-03-16T08:00:20.410Z,4.47
2023-03-16T08:02:47.292Z,4.43
2023-03-16T08:05:15.341Z,5.20
2023-03-16T08:07:46.208Z,4.95
2023-03-16T08:10:17.024Z,4.40
2023-03-16T08:12:50.277Z,4.30
2023-03-16T08:15:17.211Z,4.70
2023-03-16T08:17:45.533Z,4.57
2023-03-16T08:20:18.994Z,3.38
2023-03-16T08:22:46.895Z,3.85
2023-03-16T08:25:15.818Z,3.20
2023-03-16T08:27:53.091Z,3.92
2023-03-16T08:30:19.672Z,4.25
2023-03-16T08:32:54.622Z,4.18
2023-03-16T08:35:21.267Z,3.80
2023-03-16T08:37:49.413Z,3.95
2023-03-16T08:40:18.607Z,3.85
2023-03-16T08:42:50.053Z,3.75
2023-03-16T08:45:19.932Z,4.40
2023-03-16T08:47:46.450Z,4.63
2023-03-16T08:50:15.531Z,4.15
2023-03-16T08:52:42.741Z,4.10
2023-03-16T08:55:10.942Z,3.70
2023-03-16T08:57:39.272Z,3.97
2023-03-16T09:00:13.009Z,4.38
2023-03-16T09:02:40.704Z,3.58
2023-03-16T09:05:11.517Z,3.60
2023-03-16T09:07:39.296Z,3.80
2023-03-16T09:10:10.058Z,4.05
2023-03-16T09:12:37.053Z,4.70
2023-03-16T09:15:04.088Z,4.10
2023-03-16T09:17:30.430Z,4.38
2023-03-16T09:20:08.089Z,3.78
2023-03-16T09:22:41.938Z,3.75
2023-03-16T09:25:10.492Z,3.90
2023-03-16T09:27:37.479Z,3.63
2023-03-16T09:30:07.950Z,4.93
2023-03-16T09:32:35.228Z,4.18
2023-03-16T09:35:02.375Z,3.50
2023-03-16T09:37:35.317Z,4.13
2023-03-16T09:40:11.915Z,4.03
2023-03-16T09:42:41.529Z,3.85
2023-03-16T09:45:21.098Z,3.60
2023-03-16T09:47:49.560Z,3.67
2023-03-16T09:50:35.284Z,4.07
2023-03-16T09:53:11.961Z,3.75
2023-03-16T09:55:39.096Z,3.80
2023-03-16T09:58:10.784Z,3.88
2023-03-16T10:00:41.817Z,4.05
2023-03-16T10:03:08.177Z,3.38
2023-03-16T10:05:35.498Z,3.83
2023-03-16T10:08:04.925Z,4.00
2023-03-16T10:10:33.253Z,4.63
2023-03-16T10:13:00.744Z,3.35
2023-03-16T10:15:31.542Z,3.35
2023-03-16T10:18:02.968Z,3.70
2023-03-16T10:20:33.176Z,3.38
2023-03-16T10:23:02.057Z,3.35
2023-03-16T10:25:34.472Z,2.95
2023-03-16T10:28:00.832Z,3.35
2023-03-16T10:30:29.075Z,3.30
2023-03-16T10:33:00.312Z,3.05
2023-03-16T10:35:27.708Z,3.40
2023-03-16T10:37:54.207Z,2.75
2023-03-16T10:40:20.586Z,3.33
2023-03-16T10:42:47.678Z,3.05
2023-03-16T10:45:27.409Z,3.17
2023-03-16T10:47:54.255Z,2.95
2023-03-16T10:50:25.032Z,2.78
2023-03-16T10:52:53.140Z,3.15
2023-03-16T10:55:22.527Z,3.17
2023-03-16T10:57:50.507Z,2.70
2023-03-16T11:00:21.205Z,3.22
2023-03-16T11:02:49.127Z,3.30
2023-03-16T11:05:18.709Z,2.50
2023-03-16T11:07:53.497Z,3.00
2023-03-16T11:10:26.532Z,2.97
2023-03-16T11:12:52.972Z,3.40
2023-03-16T11:15:25.867Z,3.13
2023-03-16T11:17:53.546Z,2.90
2023-03-16T11:20:23.324Z,3.70
2023-03-16T11:22:49.787Z,3.42
2023-03-16T11:25:26.917Z,3.03
2023-03-16T11:28:03.554Z,2.67
2023-03-16T11:30:30.921Z,2.65
2023-03-16T11:33:00.201Z,2.92
2023-03-16T11:35:36.280Z,2.75
2023-03-16T11:38:31.406Z,3.33
2023-03-16T11:41:02.719Z,3.00
2023-03-16T11:43:44.827Z,2.92
2023-03-16T11:46:15.323Z,3.30
2023-03-16T11:48:44.859Z,2.58
2023-03-16T11:51:17.454Z,2.90
2023-03-16T11:53:52.474Z,2.88
2023-03-16T11:56:39.089Z,2.58
2023-03-16T11:59:24.245Z,3.25
2023-03-16T12:02:08.958Z,3.13
2023-03-16T12:04:36.781Z,2.70
2023-03-16T12:07:16.559Z,2.20
2023-03-16T12:09:43.225Z,3.22
2023-03-16T12:12:22.400Z,3.10
2023-03-16T12:15:07.644Z,2.92
2023-03-16T12:17:35.203Z,3.10
2023-03-16T12:20:23.243Z,3.85
2023-03-16T12:22:52.144Z,2.63
2023-03-16T12:25:24.888Z,2.60
2023-03-16T12:30:37.636Z,2.60
2023-03-16T12:33:04.220Z,2.85
2023-03-16T12:35:36.676Z,2.38
2023-03-16T12:38:05.887Z,2.42
2023-03-16T12:40:35.566Z,2.30
2023-03-16T12:43:15.858Z,2.65
2023-03-16T12:45:51.734Z,2.20
2023-03-16T12:48:24.974Z,2.42
2023-03-16T12:50:53.348Z,2.60
2023-03-16T12:53:38.671Z,2.00
2023-03-16T12:56:09.987Z,2.15
2023-03-16T12:58:40.436Z,1.83
2023-03-16T13:01:09.791Z,2.15
2023-03-16T13:03:36.350Z,2.20
2023-03-16T13:06:03.380Z,2.58
2023-03-16T13:08:40.568Z,2.40
2023-03-16T13:11:09.562Z,2.40
2023-03-16T13:13:47.864Z,2.55
2023-03-16T13:16:23.673Z,2.50
2023-03-16T13:18:52.051Z,2.05
2023-03-16T13:21:23.219Z,1.90
2023-03-16T13:23:54.823Z,1.73
2023-03-16T13:26:37.828Z,1.60
2023-03-16T13:29:19.298Z,2.25
2023-03-16T13:31:46.111Z,1.73
2023-03-16T13:34:14.606Z,2.03
2023-03-16T13:36:41.415Z,1.90
2023-03-16T13:39:22.218Z,1.77
2023-03-16T13:42:18.309Z,2.05
2023-03-16T13:44:44.836Z,1.77
2023-03-16T13:47:16.811Z,1.80
2023-03-16T13:49:54.646Z,1.75
2023-03-16T13:52:23.760Z,2.33
2023-03-16T13:54:51.340Z,1.80
2023-03-16T13:57:19.623Z,1.98
2023-03-16T13:59:46.090Z,2.08
2023-03-16T14:02:19.483Z,1.95
2023-03-16T14:04:47.053Z,1.63
2023-03-16T14:07:16.921Z,1.77
2023-03-16T14:09:45.206Z,1.85
2023-03-16T14:12:13.604Z,2.20
2023-03-16T14:14:41.244Z,1.98
2023-03-16T14:17:15.922Z,1.70
2023-03-16T14:19:45.752Z,1.67
2023-03-16T14:22:19.216Z,1.50
2023-03-16T14:24:46.720Z,1.73
2023-03-16T14:27:18.999Z,2.47
2023-03-16T14:29:46.109Z,2.08
2023-03-16T14:32:32.401Z,2.00
2023-03-16T14:35:03.933Z,1.92
2023-03-16T14:37:34.718Z,1.60
2023-03-16T14:40:02.633Z,2.10
2023-03-16T14:42:30.200Z,1.95
2023-03-16T14:44:58.653Z,1.77
2023-03-16T14:47:26.195Z,1.85
2023-03-16T14:49:53.211Z,1.50
2023-03-16T14:52:31.662Z,2.00
2023-03-16T14:54:58.964Z,1.70
2023-03-16T14:57:26.205Z,2.10
2023-03-16T14:59:52.965Z,1.75
2023-03-16T15:02:24.948Z,1.67
2023-03-16T15:04:51.888Z,1.55
2023-03-16T15:07:23.983Z,1.55
2023-03-16T15:09:51.642Z,1.25
2023-03-16T15:12:19.743Z,2.08
2023-03-16T15:15:05.577Z,1.55
2023-03-16T15:17:32.355Z,2.08
2023-03-16T15:19:58.998Z,11.90
2023-03-16T15:22:30.693Z,4.82
2023-03-16T15:24:58.192Z,1.50
2023-03-16T15:27:26.593Z,1.65
2023-03-16T15:29:52.988Z,1.70
2023-03-16T15:32:19.324Z,1.88
2023-03-16T15:34:46.606Z,1.67
2023-03-16T15:37:17.133Z,1.67
2023-03-16T15:39:44.504Z,1.50
2023-03-16T15:42:14.116Z,1.65
2023-03-16T15:44:40.842Z,1.80
2023-03-16T15:47:07.692Z,1.88
2023-03-16T15:49:46.731Z,2.08
2023-03-16T15:52:22.126Z,1.77
2023-03-16T15:54:48.523Z,1.88
2023-03-16T15:57:14.999Z,1.65
2023-03-16T15:59:41.825Z,1.65
2023-03-16T16:02:28.669Z,1.63
2023-03-16T16:04:55.151Z,1.20
2023-03-16T16:07:21.528Z,1.70
2023-03-16T16:09:48.198Z,1.77
2023-03-16T16:12:16.223Z,1.48
2023-03-16T16:14:42.647Z,1.73
2023-03-16T16:17:15.643Z,1.63
2023-03-16T16:19:42.013Z,1.50
2023-03-16T16:22:12.962Z,1.50
2023-03-16T16:24:39.626Z,1.65
2023-03-16T16:27:10.691Z,1.33
2023-03-16T16:29:37.091Z,1.98
2023-03-16T16:32:03.743Z,1.38
2023-03-16T16:34:30.155Z,1.67
2023-03-16T16:36:57.629Z,1.90
2023-03-16T16:39:24.568Z,1.85
2023-03-16T16:41:54.086Z,1.88
2023-03-16T16:44:24.066Z,1.45
2023-03-16T16:46:51.191Z,1.90
2023-03-16T16:49:28.425Z,1.67
2023-03-16T16:51:55.312Z,2.35
2023-03-16T16:54:25.449Z,2.47
2023-03-16T16:56:56.269Z,2.55
2023-03-16T16:59:28.887Z,2.15
2023-03-16T17:01:56.918Z,2.10
2023-03-16T17:04:25.331Z,1.98
2023-03-16T17:06:55.252Z,3.40
2023-03-16T17:09:23.246Z,2.28
2023-03-16T17:11:50.857Z,2.63
2023-03-16T17:14:18.899Z,2.10
2023-03-16T17:16:47.599Z,2.80
2023-03-16T17:19:27.742Z,2.47
2023-03-16T17:21:55.504Z,3.72
2023-03-16T17:24:22.718Z,3.47
2023-03-16T17:26:52.111Z,2.80
2023-03-16T17:29:22.489Z,4.20
2023-03-16T17:31:49.723Z,2.38
2023-03-16T17:34:17.902Z,2.33
2023-03-16T17:36:44.842Z,2.55
2023-03-16T17:39:21.755Z,2.20
2023-03-16T17:41:50.751Z,2.28
2023-03-16T17:44:19.913Z,2.05
2023-03-16T17:46:46.513Z,2.00
2023-03-16T17:49:13.902Z,2.33
2023-03-16T17:51:40.952Z,1.88
2023-03-16T17:54:07.681Z,2.50
2023-03-16T17:56:34.123Z,2.58
2023-03-16T17:59:02.640Z,3.03
2023-03-16T18:01:33.774Z,2.58
2023-03-16T18:04:01.015Z,2.15
2023-03-16T18:06:29.712Z,2.20
2023-03-16T18:08:57.003Z,2.30
2023-03-16T18:11:28.097Z,2.85
2023-03-16T18:13:54.400Z,2.95
2023-03-16T18:16:27.915Z,4.15
2023-03-16T18:18:57.601Z,3.75
2023-03-16T18:21:24.622Z,3.00
2023-03-16T18:23:51.726Z,3.38
2023-03-16T18:26:18.943Z,2.42
2023-03-16T18:28:45.871Z,3.22
2023-03-16T18:31:30.874Z,2.80
2023-03-16T18:33:59.443Z,2.22
2023-03-16T18:36:31.300Z,2.70
2023-03-16T18:38:59.508Z,2.70
2023-03-16T18:41:27.548Z,2.40
2023-03-16T18:43:55.453Z,2.45
2023-03-16T18:46:29.912Z,2.67
2023-03-16T18:48:57.516Z,2.85
2023-03-16T18:51:24.257Z,3.22
2023-03-16T18:53:50.935Z,3.08
2023-03-16T18:56:19.738Z,14.45
2023-03-16T18:58:49.642Z,6.88
2023-03-16T19:01:32.860Z,4.60
2023-03-16T19:03:59.963Z,6.38
2023-03-16T19:06:33.602Z,5.78
2023-03-16T19:09:03.001Z,4.93
2023-03-16T19:11:29.433Z,4.25
2023-03-16T19:13:56.559Z,6.00
2023-03-16T19:16:25.786Z,4.45
2023-03-16T19:18:52.190Z,3.38
2023-03-16T19:21:21.021Z,4.57
2023-03-16T19:23:54.133Z,6.03
2023-03-16T19:26:20.650Z,5.47
2023-03-16T19:28:47.235Z,5.30
2023-03-16T19:31:19.451Z,4.68
2023-03-16T19:33:46.588Z,4.93
2023-03-16T19:36:15.561Z,4.60
2023-03-16T19:38:42.009Z,4.43
2023-03-16T19:41:18.226Z,7.47
2023-03-16T19:43:44.572Z,6.45
2023-03-16T19:46:13.531Z,3.20
2023-03-16T19:48:40.080Z,8.80
2023-03-16T19:51:09.779Z,5.57
2023-03-16T19:53:36.740Z,3.28
2023-03-16T19:56:03.802Z,3.42
2023-03-16T19:58:33.195Z,2.83
2023-03-16T20:01:00.897Z,6.35
2023-03-16T20:03:28.034Z,4.60
2023-03-16T20:05:54.670Z,4.30
2023-03-16T20:08:23.943Z,6.18
2023-03-16T20:10:50.793Z,8.23
2023-03-16T20:13:18.243Z,4.85
2023-03-16T20:15:46.537Z,4.43
2023-03-16T20:18:19.033Z,4.22
2023-03-16T20:20:47.378Z,4.18
2023-03-16T20:23:16.046Z,4.50
2023-03-16T20:25:42.796Z,3.92
2023-03-16T20:28:20.026Z,2.75
2023-03-16T20:30:47.178Z,2.65
2023-03-16T20:33:24.208Z,2.30
2023-03-16T20:35:53.492Z,3.38
2023-03-16T20:38:19.935Z,3.03
2023-03-16T20:40:48.859Z,3.50
2023-03-16T20:43:23.787Z,5.75
2023-03-16T20:45:51.379Z,2.50
2023-03-16T20:48:17.722Z,2.50
2023-03-16T20:50:44.559Z,3.22
2023-03-16T20:53:12.779Z,2.88
2023-03-16T20:55:40.926Z,2.90
2023-03-16T20:58:24.448Z,3.05
2023-03-16T21:00:53.145Z,3.60
2023-03-16T21:03:23.204Z,5.22
2023-03-16T21:05:50.820Z,3.03
2023-03-16T21:08:17.667Z,9.27
2023-03-16T21:10:45.090Z,3.60
2023-03-16T21:13:24.706Z,2.53
2023-03-16T21:15:51.256Z,4.03
2023-03-16T21:18:19.765Z,3.10
2023-03-16T21:20:47.894Z,3.25
2023-03-16T21:23:21.099Z,4.85
2023-03-16T21:25:53.440Z,3.45
2023-03-16T21:28:20.609Z,3.50
2023-03-16T21:30:51.293Z,3.20
2023-03-16T21:33:37.583Z,2.72
2023-03-16T21:36:07.224Z,3.47
2023-03-16T21:38:34.984Z,3.22
2023-03-16T21:41:01.920Z,2.63
2023-03-16T21:43:28.293Z,3.15
2023-03-16T21:45:55.183Z,2.33
2023-03-16T21:48:22.818Z,4.50
2023-03-16T21:50:49.861Z,2.53
2023-03-16T21:53:22.457Z,2.45
2023-03-16T21:55:49.751Z,2.28
2023-03-16T21:58:17.294Z,2.72
2023-03-16T22:00:44.011Z,2.42
2023-03-16T22:03:47.702Z,2.47
2023-03-16T22:06:16.505Z,2.05
2023-03-16T22:08:43.150Z,2.13
2023-03-16T22:11:16.545Z,2.28
2023-03-16T22:13:46.684Z,2.30
2023-03-16T22:16:19.987Z,2.15
2023-03-16T22:18:49.168Z,2.50
2023-03-16T22:21:35.297Z,2.50
2023-03-16T22:24:02.732Z,2.30
2023-03-16T22:26:29.102Z,2.40
2023-03-16T22:28:56.246Z,2.45
2023-03-16T22:31:33.883Z,2.80
2023-03-16T22:34:01.244Z,2.55
2023-03-16T22:36:28.069Z,2.47
2023-03-16T22:39:05.606Z,2.67
2023-03-16T22:41:32.250Z,3.13
2023-03-16T22:43:59.472Z,2.70
2023-03-16T22:46:26.828Z,2.80
2023-03-16T22:48:53.644Z,2.47
2023-03-16T22:51:28.915Z,3.00
2023-03-16T22:53:59.631Z,2.72
2023-03-16T22:56:26.237Z,2.55
2023-03-16T22:58:55.640Z,2.63
2023-03-16T23:01:26.345Z,2.90
2023-03-16T23:03:53.676Z,2.88
2023-03-16T23:06:23.577Z,2.75
2023-03-16T23:08:50.118Z,2.60
2023-03-16T23:11:20.600Z,3.05
2023-03-16T23:13:47.692Z,3.05
2023-03-16T23:16:22.113Z,2.65
2023-03-16T23:18:49.131Z,2.70
2023-03-16T23:21:16.654Z,2.30
2023-03-16T23:23:48.333Z,2.40
2023-03-16T23:26:24.319Z,2.55
2023-03-16T23:28:51.715Z,2.75
2023-03-16T23:31:19.016Z,3.33
2023-03-16T23:33:45.940Z,3.13
2023-03-16T23:36:14.100Z,2.63
2023-03-16T23:38:40.986Z,2.58
2023-03-16T23:41:07.764Z,2.50
2023-03-16T23:43:34.456Z,2.88
2023-03-16T23:46:01.032Z,3.10
2023-03-16T23:48:28.068Z,2.92
2023-03-16T23:50:55.772Z,2.72
2023-03-16T23:53:22.636Z,3.10
2023-03-16T23:55:49.367Z,2.40
2023-03-16T23:58:17.012Z,2.88
